createdAt,value
2022-12-09T00:00:37.144Z,6.38
2022-12-09T00:03:03.701Z,6.35
2022-12-09T00:05:30.469Z,6.40
2022-12-09T00:07:57.109Z,5.97
2022-12-09T00:10:23.773Z,5.57
2022-12-09T00:12:55.106Z,5.22
2022-12-09T00:15:21.618Z,4.95
2022-12-09T00:17:48.163Z,4.53
2022-12-09T00:20:14.641Z,5.13
2022-12-09T00:22:40.987Z,4.88
2022-12-09T00:25:07.854Z,5.43
2022-12-09T00:27:34.399Z,5.32
2022-12-09T00:30:00.764Z,5.07
2022-12-09T00:32:27.127Z,4.40
2022-12-09T00:34:53.589Z,5.10
2022-12-09T00:37:20.586Z,5.85
2022-12-09T00:39:47.324Z,5.72
2022-12-09T00:42:13.705Z,5.50
2022-12-09T00:44:41.801Z,5.68
2022-12-09T00:47:08.277Z,5.70
2022-12-09T00:49:35.139Z,5.47
2022-12-09T00:52:01.647Z,5.20
2022-12-09T00:54:28.240Z,5.10
2022-12-09T00:56:57.044Z,5.72
2022-12-09T00:59:23.618Z,5.03
2022-12-09T01:01:50.111Z,4.63
2022-12-09T01:04:17.306Z,5.25
2022-12-09T01:06:44.142Z,5.50
2022-12-09T01:09:10.822Z,5.43
2022-12-09T01:11:37.250Z,5.18
2022-12-09T01:14:04.144Z,5.32
2022-12-09T01:16:33.492Z,5.20
2022-12-09T01:19:02.501Z,5.47
2022-12-09T01:21:29.988Z,5.32
2022-12-09T01:23:56.688Z,4.85
2022-12-09T01:26:23.328Z,5.30
2022-12-09T01:28:52.653Z,4.85
2022-12-09T01:31:23.137Z,4.25
2022-12-09T01:33:50.102Z,3.92
2022-12-09T01:36:19.888Z,4.20
2022-12-09T01:38:47.391Z,4.63
2022-12-09T01:41:16.041Z,4.88
2022-12-09T01:43:42.775Z,4.68
2022-12-09T01:46:09.258Z,3.80
2022-12-09T01:48:39.518Z,3.97
2022-12-09T01:51:16.386Z,3.78
2022-12-09T01:53:46.088Z,4.32
2022-12-09T01:56:20.593Z,4.07
2022-12-09T01:58:48.422Z,4.17
2022-12-09T02:01:17.301Z,5.13
2022-12-09T02:03:44.178Z,4.78
2022-12-09T02:06:11.004Z,4.93
2022-12-09T02:08:37.989Z,4.43
2022-12-09T02:11:07.359Z,4.65
2022-12-09T02:13:54.751Z,4.95
2022-12-09T02:16:24.863Z,4.22
2022-12-09T02:19:23.834Z,4.88
2022-12-09T02:22:00.082Z,4.95
2022-12-09T02:24:43.995Z,5.15
2022-12-09T02:27:20.667Z,5.28
2022-12-09T02:30:22.656Z,5.50
2022-12-09T02:33:11.125Z,5.13
2022-12-09T02:35:52.529Z,5.13
2022-12-09T02:38:31.944Z,4.28
2022-12-09T02:41:11.133Z,5.22
2022-12-09T02:43:49.660Z,5.13
2022-12-09T02:46:20.009Z,4.80
2022-12-09T02:48:53.494Z,5.07
2022-12-09T02:51:22.568Z,5.65
2022-12-09T02:53:53.293Z,6.03
2022-12-09T02:56:21.328Z,5.68
2022-12-09T02:58:49.116Z,5.70
2022-12-09T03:01:23.143Z,5.65
2022-12-09T03:03:52.761Z,5.43
2022-12-09T03:06:20.154Z,5.57
2022-12-09T03:08:56.916Z,6.05
2022-12-09T03:11:24.961Z,5.88
2022-12-09T03:13:59.946Z,5.32
2022-12-09T03:16:34.944Z,6.03
2022-12-09T03:19:36.271Z,7.53
2022-12-09T03:22:07.240Z,6.50
2022-12-09T03:24:50.876Z,6.70
2022-12-09T03:27:21.933Z,6.10
2022-12-09T03:29:49.883Z,6.78
2022-12-09T03:32:19.648Z,7.35
2022-12-09T03:34:51.488Z,6.72
2022-12-09T03:37:20.197Z,5.85
2022-12-09T03:39:49.482Z,6.10
2022-12-09T03:42:21.316Z,6.07
2022-12-09T03:45:02.798Z,6.35
2022-12-09T03:47:30.224Z,6.35
2022-12-09T03:52:45.108Z,6.85
2022-12-09T03:57:45.388Z,6.03
2022-12-09T04:00:12.745Z,7.25
2022-12-09T04:02:40.514Z,6.45
2022-12-09T04:05:07.842Z,6.78
2022-12-09T04:07:34.431Z,6.28
2022-12-09T04:10:01.220Z,6.43
2022-12-09T04:12:27.763Z,6.43
2022-12-09T04:14:54.401Z,7.10
2022-12-09T04:17:21.104Z,5.88
2022-12-09T04:19:48.027Z,7.45
2022-12-09T04:22:14.752Z,6.93
2022-12-09T04:24:41.190Z,7.72
2022-12-09T04:27:07.836Z,7.90
2022-12-09T04:29:34.289Z,6.78
2022-12-09T04:32:00.734Z,7.30
2022-12-09T04:34:27.391Z,7.95
2022-12-09T04:36:54.225Z,7.45
2022-12-09T04:39:20.647Z,7.45
2022-12-09T04:41:47.070Z,7.35
2022-12-09T04:44:13.566Z,7.35
2022-12-09T04:46:40.391Z,7.68
2022-12-09T04:49:06.937Z,6.97
2022-12-09T04:51:39.460Z,7.72
2022-12-09T04:54:07.392Z,6.68
2022-12-09T04:56:33.917Z,7.93
2022-12-09T04:59:00.299Z,8.50
2022-12-09T05:01:31.274Z,7.55
2022-12-09T05:03:59.326Z,7.32
2022-12-09T05:06:26.226Z,7.50
2022-12-09T05:08:53.376Z,6.78
2022-12-09T05:11:21.267Z,7.15
2022-12-09T05:13:48.121Z,7.68
2022-12-09T05:16:17.479Z,7.38
2022-12-09T05:18:46.533Z,8.52
2022-12-09T05:21:15.939Z,7.88
2022-12-09T05:23:43.259Z,8.43
2022-12-09T05:26:13.139Z,8.65
2022-12-09T05:28:40.226Z,7.90
2022-12-09T05:31:15.826Z,7.90
2022-12-09T05:33:43.544Z,7.07
2022-12-09T05:36:11.906Z,7.55
2022-12-09T05:38:39.208Z,7.47
2022-12-09T05:41:06.020Z,7.70
2022-12-09T05:43:33.980Z,8.07
2022-12-09T05:46:01.867Z,7.28
2022-12-09T05:48:29.426Z,7.63
2022-12-09T05:51:08.660Z,7.68
2022-12-09T05:53:36.045Z,7.82
2022-12-09T05:56:03.141Z,8.35
2022-12-09T05:58:29.773Z,9.02
2022-12-09T06:00:57.942Z,8.32
2022-12-09T06:03:25.136Z,8.85
2022-12-09T06:05:52.246Z,9.07
2022-12-09T06:08:19.615Z,9.27
2022-12-09T06:10:46.296Z,10.38
2022-12-09T06:13:14.008Z,10.90
2022-12-09T06:15:40.920Z,10.95
2022-12-09T06:18:07.551Z,10.70
2022-12-09T06:20:34.282Z,9.00
2022-12-09T06:23:00.731Z,9.73
2022-12-09T06:25:27.274Z,9.25
2022-12-09T06:27:53.899Z,9.73
2022-12-09T06:30:21.006Z,8.63
2022-12-09T06:32:47.750Z,8.93
2022-12-09T06:35:15.399Z,9.32
2022-12-09T06:37:42.361Z,8.57
2022-12-09T06:40:09.432Z,8.73
2022-12-09T06:42:36.330Z,10.48
2022-12-09T06:45:03.298Z,9.77
2022-12-09T06:47:29.776Z,10.88
2022-12-09T06:50:02.713Z,11.73
2022-12-09T06:52:32.885Z,14.13
2022-12-09T06:54:59.446Z,13.15
2022-12-09T06:57:26.249Z,13.10
2022-12-09T06:59:53.087Z,13.40
2022-12-09T07:02:19.759Z,14.13
2022-12-09T07:04:47.039Z,14.02
2022-12-09T07:07:15.136Z,13.02
2022-12-09T07:09:41.974Z,10.88
2022-12-09T07:12:08.629Z,10.43
2022-12-09T07:14:36.914Z,10.13
2022-12-09T07:17:03.989Z,9.48
2022-12-09T07:19:31.364Z,9.20
2022-12-09T07:21:58.053Z,9.98
2022-12-09T07:24:25.391Z,10.02
2022-12-09T07:26:52.660Z,10.52
2022-12-09T07:29:19.473Z,11.50
2022-12-09T07:31:47.659Z,12.23
2022-12-09T07:34:14.501Z,13.73
2022-12-09T07:36:41.411Z,11.80
2022-12-09T07:39:12.184Z,10.07
2022-12-09T07:41:39.359Z,10.13
2022-12-09T07:44:06.256Z,9.95
2022-12-09T07:46:33.330Z,9.73
2022-12-09T07:49:02.928Z,9.80
2022-12-09T07:51:30.295Z,10.02
2022-12-09T07:53:57.287Z,11.38
2022-12-09T07:56:24.898Z,10.48
2022-12-09T07:58:53.396Z,9.77
2022-12-09T08:01:26.784Z,9.60
2022-12-09T08:03:54.710Z,10.45
2022-12-09T08:06:24.667Z,10.30
2022-12-09T08:08:52.066Z,10.05
2022-12-09T08:11:24.431Z,9.80
2022-12-09T08:13:52.375Z,10.90
2022-12-09T08:16:21.464Z,11.20
2022-12-09T08:18:48.828Z,10.35
2022-12-09T08:21:18.950Z,10.25
2022-12-09T08:23:50.167Z,9.85
2022-12-09T08:26:19.915Z,11.90
2022-12-09T08:28:46.820Z,11.27
2022-12-09T08:31:16.846Z,11.95
2022-12-09T08:33:44.141Z,13.00
2022-12-09T08:36:13.843Z,11.88
2022-12-09T08:38:41.389Z,10.60
2022-12-09T08:41:17.577Z,12.70
2022-12-09T08:43:45.041Z,13.82
2022-12-09T08:46:12.915Z,11.13
2022-12-09T08:48:41.713Z,11.18
2022-12-09T08:51:10.616Z,11.20
2022-12-09T08:53:37.116Z,11.80
2022-12-09T08:56:14.789Z,12.70
2022-12-09T08:58:42.360Z,12.15
2022-12-09T09:01:15.885Z,12.90
2022-12-09T09:03:43.922Z,11.05
2022-12-09T09:06:11.470Z,11.13
2022-12-09T09:08:39.644Z,11.07
2022-12-09T09:11:18.107Z,11.48
2022-12-09T09:13:48.069Z,10.82
2022-12-09T09:16:18.413Z,10.48
2022-12-09T09:18:45.772Z,9.98
2022-12-09T09:21:14.689Z,11.07
2022-12-09T09:23:42.228Z,12.23
2022-12-09T09:26:15.160Z,11.52
2022-12-09T09:28:41.977Z,11.43
2022-12-09T09:31:14.425Z,12.02
2022-12-09T09:33:41.768Z,9.65
2022-12-09T09:36:11.651Z,10.48
2022-12-09T09:38:38.735Z,12.45
2022-12-09T09:41:40.207Z,10.75
2022-12-09T09:44:19.677Z,9.70
2022-12-09T09:46:50.824Z,9.85
2022-12-09T09:49:36.617Z,12.43
2022-12-09T09:52:14.503Z,10.43
2022-12-09T09:54:41.009Z,12.75
2022-12-09T09:57:31.318Z,11.43
2022-12-09T10:00:11.313Z,11.63
2022-12-09T10:02:52.720Z,12.45
2022-12-09T10:05:25.468Z,13.15
2022-12-09T10:07:59.285Z,11.60
2022-12-09T10:10:26.058Z,14.18
2022-12-09T10:12:55.381Z,12.25
2022-12-09T10:16:03.020Z,12.25
2022-12-09T10:18:42.507Z,13.98
2022-12-09T10:21:17.373Z,11.95
2022-12-09T10:23:46.024Z,13.20
2022-12-09T10:26:21.102Z,11.38
2022-12-09T10:28:54.150Z,13.05
2022-12-09T10:31:21.052Z,11.88
2022-12-09T10:33:48.988Z,13.07
2022-12-09T10:36:28.245Z,11.75
2022-12-09T10:38:57.500Z,12.38
2022-12-09T10:42:06.253Z,12.43
2022-12-09T10:44:33.426Z,12.25
2022-12-09T10:47:04.197Z,12.05
2022-12-09T10:49:33.321Z,11.48
2022-12-09T10:52:00.840Z,12.40
2022-12-09T10:54:27.666Z,12.15
2022-12-09T10:57:05.056Z,11.50
2022-12-09T10:59:32.785Z,11.10
2022-12-09T11:02:08.833Z,10.75
2022-12-09T11:04:41.969Z,12.30
2022-12-09T11:07:11.935Z,12.07
2022-12-09T11:09:56.238Z,12.65
2022-12-09T11:12:31.964Z,12.57
2022-12-09T11:15:25.056Z,12.90
2022-12-09T11:18:16.102Z,13.13
2022-12-09T11:20:43.177Z,13.00
2022-12-09T11:23:12.475Z,14.73
2022-12-09T11:25:58.739Z,12.82
2022-12-09T11:28:27.693Z,12.27
2022-12-09T11:33:54.255Z,11.90
2022-12-09T11:36:25.544Z,12.43
2022-12-09T11:39:19.438Z,12.43
2022-12-09T11:42:16.452Z,11.80
2022-12-09T11:45:06.738Z,12.05
2022-12-09T11:48:20.213Z,11.30
2022-12-09T11:50:32.604Z,11.80
2022-12-09T11:53:11.086Z,12.25
2022-12-09T11:55:49.271Z,12.70
2022-12-09T11:58:21.212Z,12.45
2022-12-09T12:01:02.756Z,12.25
2022-12-09T12:03:42.241Z,12.57
2022-12-09T12:06:18.126Z,11.27
2022-12-09T12:09:07.420Z,11.70
2022-12-09T12:11:44.475Z,11.60
2022-12-09T12:14:18.892Z,10.98
2022-12-09T12:17:04.656Z,10.35
2022-12-09T12:19:34.905Z,10.10
2022-12-09T12:22:19.933Z,11.40
2022-12-09T12:24:52.148Z,11.23
2022-12-09T12:27:45.539Z,11.13
2022-12-09T12:30:18.919Z,9.43
2022-12-09T12:36:22.793Z,9.93
2022-12-09T12:39:25.322Z,8.65
2022-12-09T12:42:05.253Z,7.10
2022-12-09T12:45:05.705Z,8.02
2022-12-09T12:47:47.767Z,7.55
2022-12-09T12:50:43.227Z,7.90
2022-12-09T12:53:19.006Z,7.22
2022-12-09T12:56:00.731Z,6.75
2022-12-09T12:59:04.969Z,7.00
2022-12-09T13:01:41.992Z,6.68
2022-12-09T13:04:23.927Z,6.47
2022-12-09T13:07:41.146Z,7.28
2022-12-09T13:10:20.012Z,6.25
2022-12-09T13:12:54.085Z,8.02
2022-12-09T13:15:37.761Z,7.55
2022-12-09T13:18:14.463Z,6.97
2022-12-09T13:20:51.069Z,7.30
2022-12-09T13:23:32.934Z,6.95
2022-12-09T13:26:17.640Z,6.97
2022-12-09T13:28:57.477Z,7.50
2022-12-09T13:31:34.233Z,6.13
2022-12-09T13:34:36.241Z,6.65
2022-12-09T13:37:02.820Z,6.85
2022-12-09T13:39:41.519Z,6.57
2022-12-09T13:42:46.263Z,6.78
2022-12-09T13:45:25.066Z,7.20
2022-12-09T13:47:55.846Z,6.32
2022-12-09T13:50:28.404Z,7.40
2022-12-09T13:53:01.885Z,6.95
2022-12-09T13:55:36.369Z,7.78
2022-12-09T13:58:30.098Z,7.63
2022-12-09T14:01:04.308Z,7.10
2022-12-09T14:03:34.765Z,8.10
2022-12-09T14:06:18.016Z,7.47
2022-12-09T14:08:49.764Z,8.35
2022-12-09T14:11:28.018Z,6.90
2022-12-09T14:14:23.018Z,7.00
2022-12-09T14:17:03.870Z,7.60
2022-12-09T14:19:48.564Z,8.38
2022-12-09T14:22:23.917Z,8.02
2022-12-09T14:24:51.816Z,6.07
2022-12-09T14:27:24.370Z,7.32
2022-12-09T14:29:52.567Z,7.07
2022-12-09T14:32:30.949Z,6.18
2022-12-09T14:35:09.414Z,6.18
2022-12-09T14:37:42.314Z,6.15
2022-12-09T14:40:14.799Z,5.97
2022-12-09T14:42:53.123Z,6.68
2022-12-09T14:45:28.406Z,6.40
2022-12-09T14:47:56.060Z,6.13
2022-12-09T14:50:24.442Z,6.10
2022-12-09T14:52:52.763Z,5.75
2022-12-09T14:55:23.394Z,5.95
2022-12-09T14:57:51.142Z,5.30
2022-12-09T15:00:32.654Z,5.35
2022-12-09T15:03:31.330Z,5.85
2022-12-09T15:06:11.939Z,5.22
2022-12-09T15:08:40.539Z,5.43
2022-12-09T15:11:23.855Z,5.63
2022-12-09T15:13:52.384Z,7.95
2022-12-09T15:16:22.998Z,7.18
2022-12-09T15:18:51.290Z,7.07
2022-12-09T15:21:31.572Z,8.75
2022-12-09T15:24:00.398Z,8.85
2022-12-09T15:26:32.860Z,7.72
2022-12-09T15:29:00.919Z,7.13
2022-12-09T15:31:30.000Z,6.43
2022-12-09T15:33:59.737Z,5.95
2022-12-09T15:36:32.542Z,6.53
2022-12-09T15:39:32.181Z,5.93
2022-12-09T15:42:21.979Z,5.75
2022-12-09T15:45:11.595Z,6.28
2022-12-09T15:47:54.817Z,6.90
2022-12-09T15:50:32.185Z,6.63
2022-12-09T15:53:17.584Z,7.00
2022-12-09T15:58:38.407Z,6.30
2022-12-09T16:01:05.296Z,6.38
2022-12-09T16:03:33.788Z,6.32
2022-12-09T16:06:04.438Z,6.38
2022-12-09T16:08:35.242Z,6.22
2022-12-09T16:11:02.192Z,6.82
2022-12-09T16:13:28.695Z,6.25
2022-12-09T16:15:57.411Z,5.85
2022-12-09T16:18:49.752Z,5.90
2022-12-09T16:21:16.110Z,6.57
2022-12-09T16:23:46.932Z,7.00
2022-12-09T16:26:31.992Z,22.40
2022-12-09T16:29:05.113Z,39.72
2022-12-09T16:31:31.946Z,12.15
2022-12-09T16:33:58.581Z,8.88
2022-12-09T16:36:27.860Z,7.80
2022-12-09T16:39:09.450Z,7.68
2022-12-09T16:42:19.259Z,8.70
2022-12-09T16:44:45.615Z,11.90
2022-12-09T16:47:16.212Z,8.10
2022-12-09T16:49:46.034Z,8.45
2022-12-09T16:52:26.388Z,7.93
2022-12-09T16:54:52.799Z,7.25
2022-12-09T16:57:20.284Z,7.38
2022-12-09T16:59:47.274Z,7.15
2022-12-09T17:02:32.963Z,6.50
2022-12-09T17:05:00.545Z,6.82
2022-12-09T17:07:26.933Z,7.20
2022-12-09T17:09:53.306Z,7.55
2022-12-09T17:12:19.778Z,7.28
2022-12-09T17:14:46.231Z,7.50
2022-12-09T17:17:12.659Z,7.90
2022-12-09T17:19:41.870Z,7.40
2022-12-09T17:22:08.311Z,7.68
2022-12-09T17:24:34.736Z,6.88
2022-12-09T17:27:01.140Z,8.20
2022-12-09T17:29:27.791Z,8.52
2022-12-09T17:31:54.298Z,8.98
2022-12-09T17:34:20.782Z,9.32
2022-12-09T17:36:47.492Z,8.80
2022-12-09T17:39:14.801Z,8.02
2022-12-09T17:41:42.466Z,8.50
2022-12-09T17:44:10.169Z,7.90
2022-12-09T17:46:36.620Z,7.63
2022-12-09T17:49:03.125Z,8.02
2022-12-09T17:51:35.408Z,7.93
2022-12-09T17:54:02.930Z,6.70
2022-12-09T17:56:29.410Z,8.05
2022-12-09T17:58:58.323Z,7.40
2022-12-09T18:01:25.326Z,7.82
2022-12-09T18:03:56.458Z,8.00
2022-12-09T18:06:27.533Z,8.35
2022-12-09T18:08:54.618Z,8.57
2022-12-09T18:11:22.289Z,7.85
2022-12-09T18:13:48.992Z,8.82
2022-12-09T18:16:16.170Z,9.40
2022-12-09T18:18:43.112Z,8.77
2022-12-09T18:21:15.329Z,7.15
2022-12-09T18:23:42.769Z,9.18
2022-12-09T18:26:11.636Z,10.07
2022-12-09T18:28:38.877Z,8.02
2022-12-09T18:31:07.712Z,8.38
2022-12-09T18:33:34.635Z,8.88
2022-12-09T18:36:06.085Z,8.65
2022-12-09T18:38:32.451Z,8.40
2022-12-09T18:41:01.475Z,7.35
2022-12-09T18:43:35.935Z,8.95
2022-12-09T18:46:08.642Z,9.20
2022-12-09T18:48:36.028Z,8.60
2022-12-09T18:51:03.263Z,8.93
2022-12-09T18:53:30.135Z,8.25
2022-12-09T18:55:56.597Z,10.20
2022-12-09T18:58:36.778Z,10.93
2022-12-09T19:01:27.876Z,11.70
2022-12-09T19:03:57.211Z,11.93
2022-12-09T19:06:26.812Z,10.25
2022-12-09T19:08:57.398Z,9.15
2022-12-09T19:11:26.744Z,9.85
2022-12-09T19:13:53.993Z,11.77
2022-12-09T19:16:21.603Z,12.00
2022-12-09T19:18:48.662Z,12.52
2022-12-09T19:21:18.166Z,11.70
2022-12-09T19:23:45.961Z,12.35
2022-12-09T19:26:27.448Z,11.18
2022-12-09T19:28:59.409Z,10.43
2022-12-09T19:31:31.477Z,10.02
2022-12-09T19:34:01.870Z,10.68
2022-12-09T19:36:31.097Z,8.98
2022-12-09T19:38:58.192Z,9.07
2022-12-09T19:41:24.747Z,9.15
2022-12-09T19:43:55.883Z,9.95
2022-12-09T19:46:22.866Z,9.98
2022-12-09T19:48:49.517Z,9.77
2022-12-09T19:51:17.640Z,9.75
2022-12-09T19:53:44.671Z,9.13
2022-12-09T19:56:13.550Z,11.85
2022-12-09T19:58:41.462Z,12.93
2022-12-09T20:01:20.354Z,12.20
2022-12-09T20:03:49.670Z,12.00
2022-12-09T20:06:18.388Z,11.07
2022-12-09T20:08:45.795Z,11.02
2022-12-09T20:11:15.394Z,9.35
2022-12-09T20:13:42.699Z,10.15
2022-12-09T20:16:12.149Z,9.63
2022-12-09T20:18:38.942Z,8.73
2022-12-09T20:21:08.184Z,10.50
2022-12-09T20:23:36.354Z,10.20
2022-12-09T20:26:08.136Z,9.95
2022-12-09T20:28:36.620Z,9.93
2022-12-09T20:31:11.299Z,10.25
2022-12-09T20:33:38.293Z,9.75
2022-12-09T20:36:17.927Z,9.60
2022-12-09T20:38:49.418Z,9.45
2022-12-09T20:41:16.363Z,9.82
2022-12-09T20:43:44.370Z,13.13
2022-12-09T20:46:13.883Z,10.02
2022-12-09T20:48:40.662Z,14.07
2022-12-09T20:51:21.584Z,13.93
2022-12-09T20:53:49.195Z,10.43
2022-12-09T20:56:17.499Z,10.57
2022-12-09T20:58:45.355Z,11.07
2022-12-09T21:01:20.136Z,12.20
2022-12-09T21:03:47.781Z,13.45
2022-12-09T21:06:16.255Z,13.45
2022-12-09T21:08:43.356Z,11.90
2022-12-09T21:11:16.431Z,10.82
2022-12-09T21:13:46.004Z,11.30
2022-12-09T21:16:16.099Z,9.32
2022-12-09T21:18:43.434Z,10.02
2022-12-09T21:21:10.059Z,10.52
2022-12-09T21:23:37.396Z,10.02
2022-12-09T21:26:09.829Z,10.18
2022-12-09T21:28:37.920Z,10.15
2022-12-09T21:31:13.583Z,13.50
2022-12-09T21:33:41.692Z,14.95
2022-12-09T21:36:13.726Z,18.30
2022-12-09T21:38:40.551Z,15.15
2022-12-09T21:41:13.218Z,10.13
2022-12-09T21:43:39.856Z,10.00
2022-12-09T21:46:12.387Z,10.27
2022-12-09T21:48:39.677Z,9.57
2022-12-09T21:51:10.864Z,9.63
2022-12-09T21:53:37.828Z,9.25
2022-12-09T21:56:11.830Z,10.55
2022-12-09T21:58:38.595Z,11.33
2022-12-09T22:01:20.079Z,10.23
2022-12-09T22:03:48.207Z,10.18
2022-12-09T22:06:17.778Z,10.45
2022-12-09T22:08:44.762Z,10.18
2022-12-09T22:11:14.452Z,9.30
2022-12-09T22:13:41.259Z,10.15
2022-12-09T22:16:17.471Z,9.52
2022-12-09T22:18:44.406Z,9.63
2022-12-09T22:21:24.752Z,9.27
2022-12-09T22:23:57.883Z,9.13
2022-12-09T22:26:26.030Z,8.48
2022-12-09T22:28:53.433Z,8.45
2022-12-09T22:31:22.989Z,8.38
2022-12-09T22:33:51.677Z,8.80
2022-12-09T22:36:18.998Z,8.23
2022-12-09T22:38:45.740Z,9.02
2022-12-09T22:41:23.764Z,8.38
2022-12-09T22:43:51.065Z,8.73
2022-12-09T22:46:23.263Z,9.80
2022-12-09T22:48:49.883Z,9.45
2022-12-09T22:51:20.712Z,9.35
2022-12-09T22:53:49.044Z,8.55
2022-12-09T22:56:16.062Z,8.15
2022-12-09T22:58:42.472Z,8.27
2022-12-09T23:01:14.017Z,7.13
2022-12-09T23:03:41.131Z,8.35
2022-12-09T23:06:08.417Z,8.50
2022-12-09T23:08:36.212Z,8.55
2022-12-09T23:11:05.104Z,8.20
2022-12-09T23:13:33.902Z,8.32
2022-12-09T23:16:05.447Z,7.50
2022-12-09T23:18:34.052Z,7.72
2022-12-09T23:21:11.488Z,7.53
2022-12-09T23:23:38.341Z,8.15
2022-12-09T23:26:07.316Z,8.02
2022-12-09T23:28:38.356Z,7.93
2022-12-09T23:31:07.196Z,8.82
2022-12-09T23:33:34.882Z,8.95
2022-12-09T23:36:09.239Z,8.88
2022-12-09T23:38:36.213Z,7.38
2022-12-09T23:41:03.486Z,8.23
2022-12-09T23:43:34.466Z,8.77
2022-12-09T23:46:11.407Z,8.38
2022-12-09T23:48:41.478Z,7.65
2022-12-09T23:51:17.115Z,7.47
2022-12-09T23:53:45.054Z,7.43
2022-12-09T23:56:16.437Z,8.07
2022-12-09T23:58:43.187Z,7.72
